Grantham, NH

12:31 AM EDT on June 03, 2015 (GMT -0400)
Eastman - South Cove | | Change Station
CLOSE
Current Station
Personal Weather Station
Location: Grantham, NH
Elevation: 1250 ft
Nearby Weather Stations

Elev 1250 ft 43.52 °N, 72.11 °W | Updated 27 seconds ago

Overcast
Overcast
49.1 °F
Feels Like 49 °F
N
0.0
Wind Variable Wind from East
Gusts 1.0 mph

Today
High -- | Low -- °F
--% Chance of Precip.
Yesterday
High -- | Low -- °F
Precip. -- in
5:09 AM 8:24 PM
Full, 100% visible
Pressure 30.18 in
Visibility 10.0 miles
Clouds Few 2600 ft
Overcast 4500 ft
Windchill 49 °F
Dew Point 48 °F
Humidity 97%
Rainfall 0.00 in
Snow Depth Not available.
UV 0.0 out of 12
Pollen .80 out of 12
Air Quality Not available.
Flu Activity Sporadic
METAR KLEB 030353Z AUTO 02004KT 10SM FEW026 OVC045 12/09 A3018 RMK AO2 SLP219 T01170094

More Conditions Fewer Conditions

Pressure 30.18 in
Visibility 10.0 miles
Clouds Few 2600 ft
Overcast 4500 ft
Windchill 49 °F
Dew Point 48 °F
Humidity 97%
Rainfall 0.00 in
Snow Depth Not available.
UV 0.0 out of 12
Pollen .80 out of 12
Air Quality Not available.
Flu Activity Sporadic
METAR KLEB 030353Z AUTO 02004KT 10SM FEW026 OVC045 12/09 A3018 RMK AO2 SLP219 T01170094

More Conditions Fewer Conditions

10-Day Weather Forecast

×

Almanac

Astronomy

Jun. 03, 2015 Rise Set
Actual Time
Civil Twilight
Nautical Twilight
Astronomical Twilight
Moon
Length of Visible Light
Length of Day
Tomorrow will be .
, % of the Moon is Illuminated

Today's Extremes

State Highs State Lows

Community

WunderPhotos

Upload Photos

1,826,164 photos uploaded!

WunderBlogs® & News

Nearby

Air Quality

  Air Quality AQ Index Pollutant
Not available.

Snow Depth

Station Depth Elevation

Earthquake Activity

City Distance Mag. Time & Date
Minimum magnitude displayed is 2.5.

Coastal Water Temperatures

Place Temperature

Stations

Nearby Weather Stations

Station Location Temp. Windchill Dew Point Humidity Wind Precip. Elev Updated Type